sensor_id;sensor_type;location;lat;lon;timestamp;temperature;humidity
580;DHT22;276;48.392;9.950;2022-10-31T00:00:57;14.50;99.90
580;DHT22;276;48.392;9.950;2022-10-31T00:03:23;14.50;99.90
580;DHT22;276;48.392;9.950;2022-10-31T00:05:50;14.50;99.90
580;DHT22;276;48.392;9.950;2022-10-31T00:08:18;14.50;99.90
580;DHT22;276;48.392;9.950;2022-10-31T00:10:45;14.50;99.90
580;DHT22;276;48.392;9.950;2022-10-31T00:13:12;14.50;99.90
580;DHT22;276;48.392;9.950;2022-10-31T00:15:41;14.50;99.90
580;DHT22;276;48.392;9.950;2022-10-31T00:18:08;14.50;99.90
580;DHT22;276;48.392;9.950;2022-10-31T00:20:34;14.50;99.90
580;DHT22;276;48.392;9.950;2022-10-31T00:23:03;14.50;99.90
580;DHT22;276;48.392;9.950;2022-10-31T00:25:32;14.50;99.90
580;DHT22;276;48.392;9.950;2022-10-31T00:28:00;14.40;99.90
580;DHT22;276;48.392;9.950;2022-10-31T00:30:28;14.40;99.90
580;DHT22;276;48.392;9.950;2022-10-31T00:32:54;14.40;99.90
580;DHT22;276;48.392;9.950;2022-10-31T00:35:19;14.30;99.90
580;DHT22;276;48.392;9.950;2022-10-31T00:37:45;14.40;99.90
580;DHT22;276;48.392;9.950;2022-10-31T00:40:11;14.30;99.90
580;DHT22;276;48.392;9.950;2022-10-31T00:42:37;14.30;99.90
580;DHT22;276;48.392;9.950;2022-10-31T00:45:07;14.30;99.90
580;DHT22;276;48.392;9.950;2022-10-31T00:47:33;14.40;99.90
580;DHT22;276;48.392;9.950;2022-10-31T00:49:58;14.30;99.90
580;DHT22;276;48.392;9.950;2022-10-31T00:52:24;14.30;99.90
580;DHT22;276;48.392;9.950;2022-10-31T00:54:50;14.30;99.90
580;DHT22;276;48.392;9.950;2022-10-31T00:57:18;14.30;99.90
580;DHT22;276;48.392;9.950;2022-10-31T00:59:43;14.30;99.90
580;DHT22;276;48.392;9.950;2022-10-31T01:02:09;14.30;99.90
580;DHT22;276;48.392;9.950;2022-10-31T01:04:34;14.30;99.90
580;DHT22;276;48.392;9.950;2022-10-31T01:07:00;14.20;99.90
580;DHT22;276;48.392;9.950;2022-10-31T01:09:26;14.20;99.90
580;DHT22;276;48.392;9.950;2022-10-31T01:11:54;14.20;99.90
580;DHT22;276;48.392;9.950;2022-10-31T01:14:19;14.20;99.90
580;DHT22;276;48.392;9.950;2022-10-31T01:16:47;14.20;99.90
580;DHT22;276;48.392;9.950;2022-10-31T01:19:12;14.20;99.90
580;DHT22;276;48.392;9.950;2022-10-31T01:21:38;14.20;99.90
580;DHT22;276;48.392;9.950;2022-10-31T01:24:04;14.20;99.90
580;DHT22;276;48.392;9.950;2022-10-31T01:26:33;14.20;99.90
580;DHT22;276;48.392;9.950;2022-10-31T01:29:02;14.10;99.90
580;DHT22;276;48.392;9.950;2022-10-31T01:31:31;14.10;99.90
580;DHT22;276;48.392;9.950;2022-10-31T01:33:58;14.20;99.90
580;DHT22;276;48.392;9.950;2022-10-31T01:36:32;14.10;99.90
580;DHT22;276;48.392;9.950;2022-10-31T01:39:03;14.10;99.90
580;DHT22;276;48.392;9.950;2022-10-31T01:41:32;14.10;99.90
580;DHT22;276;48.392;9.950;2022-10-31T01:44:00;14.10;99.90
580;DHT22;276;48.392;9.950;2022-10-31T01:46:30;14.10;99.90
580;DHT22;276;48.392;9.950;2022-10-31T01:49:02;14.00;99.90
580;DHT22;276;48.392;9.950;2022-10-31T01:51:33;14.00;99.90
580;DHT22;276;48.392;9.950;2022-10-31T01:54:04;14.00;99.90
580;DHT22;276;48.392;9.950;2022-10-31T01:56:32;14.00;99.90
580;DHT22;276;48.392;9.950;2022-10-31T01:59:02;14.00;99.90
580;DHT22;276;48.392;9.950;2022-10-31T02:01:30;14.00;99.90
580;DHT22;276;48.392;9.950;2022-10-31T02:03:56;14.00;99.90
580;DHT22;276;48.392;9.950;2022-10-31T02:06:47;13.90;99.90
580;DHT22;276;48.392;9.950;2022-10-31T02:09:15;13.90;99.90
580;DHT22;276;48.392;9.950;2022-10-31T02:11:45;13.90;99.90
580;DHT22;276;48.392;9.950;2022-10-31T02:14:12;13.90;99.90
580;DHT22;276;48.392;9.950;2022-10-31T02:16:38;13.80;99.90
580;DHT22;276;48.392;9.950;2022-10-31T02:19:06;13.80;99.90
580;DHT22;276;48.392;9.950;2022-10-31T02:24:23;13.80;99.90
580;DHT22;276;48.392;9.950;2022-10-31T02:41:14;13.80;99.90
580;DHT22;276;48.392;9.950;2022-10-31T02:46:15;13.70;99.90
580;DHT22;276;48.392;9.950;2022-10-31T02:48:48;13.70;99.90
580;DHT22;276;48.392;9.950;2022-10-31T02:51:19;13.70;99.90
580;DHT22;276;48.392;9.950;2022-10-31T02:53:45;13.70;99.90
580;DHT22;276;48.392;9.950;2022-10-31T02:56:17;13.70;99.90
580;DHT22;276;48.392;9.950;2022-10-31T02:58:58;13.70;99.90
580;DHT22;276;48.392;9.950;2022-10-31T03:07:28;13.60;99.90
580;DHT22;276;48.392;9.950;2022-10-31T03:15:30;13.60;99.90
580;DHT22;276;48.392;9.950;2022-10-31T03:18:08;13.60;99.90
580;DHT22;276;48.392;9.950;2022-10-31T03:20:41;13.60;99.90
580;DHT22;276;48.392;9.950;2022-10-31T03:23:13;13.60;99.90
580;DHT22;276;48.392;9.950;2022-10-31T03:25:45;13.50;99.90
580;DHT22;276;48.392;9.950;2022-10-31T03:28:15;13.50;99.90
580;DHT22;276;48.392;9.950;2022-10-31T03:30:45;13.50;99.90
580;DHT22;276;48.392;9.950;2022-10-31T03:33:17;13.50;99.90
580;DHT22;276;48.392;9.950;2022-10-31T03:35:47;13.50;99.90
580;DHT22;276;48.392;9.950;2022-10-31T03:38:17;13.50;99.90
580;DHT22;276;48.392;9.950;2022-10-31T03:40:46;13.50;99.90
580;DHT22;276;48.392;9.950;2022-10-31T03:43:29;13.40;99.90
580;DHT22;276;48.392;9.950;2022-10-31T03:45:55;13.40;99.90
580;DHT22;276;48.392;9.950;2022-10-31T03:48:22;13.40;99.90
580;DHT22;276;48.392;9.950;2022-10-31T03:53:32;13.40;99.90
580;DHT22;276;48.392;9.950;2022-10-31T03:58:41;13.30;99.90
580;DHT22;276;48.392;9.950;2022-10-31T04:01:09;13.30;99.90
580;DHT22;276;48.392;9.950;2022-10-31T04:03:37;13.30;99.90
580;DHT22;276;48.392;9.950;2022-10-31T04:06:08;13.30;99.90
580;DHT22;276;48.392;9.950;2022-10-31T04:08:44;13.30;99.90
580;DHT22;276;48.392;9.950;2022-10-31T04:11:12;13.30;99.90
580;DHT22;276;48.392;9.950;2022-10-31T04:13:43;13.30;99.90
580;DHT22;276;48.392;9.950;2022-10-31T04:16:10;13.30;99.90
580;DHT22;276;48.392;9.950;2022-10-31T04:18:37;13.30;99.90
580;DHT22;276;48.392;9.950;2022-10-31T04:21:05;13.30;99.90
580;DHT22;276;48.392;9.950;2022-10-31T04:23:31;13.30;99.90
580;DHT22;276;48.392;9.950;2022-10-31T04:25:57;13.20;99.90
580;DHT22;276;48.392;9.950;2022-10-31T04:28:25;13.20;99.90
580;DHT22;276;48.392;9.950;2022-10-31T04:30:51;13.20;99.90
580;DHT22;276;48.392;9.950;2022-10-31T04:33:17;13.10;99.90
580;DHT22;276;48.392;9.950;2022-10-31T04:35:43;13.20;99.90
580;DHT22;276;48.392;9.950;2022-10-31T04:38:13;13.20;99.90
580;DHT22;276;48.392;9.950;2022-10-31T04:40:39;13.20;99.90
580;DHT22;276;48.392;9.950;2022-10-31T04:43:09;13.20;99.90
580;DHT22;276;48.392;9.950;2022-10-31T04:45:35;13.20;99.90
580;DHT22;276;48.392;9.950;2022-10-31T04:48:01;13.10;99.90
580;DHT22;276;48.392;9.950;2022-10-31T04:50:26;13.20;99.90
580;DHT22;276;48.392;9.950;2022-10-31T04:52:54;13.10;99.90
580;DHT22;276;48.392;9.950;2022-10-31T04:55:20;13.10;99.90
580;DHT22;276;48.392;9.950;2022-10-31T04:57:48;13.10;99.90
580;DHT22;276;48.392;9.950;2022-10-31T05:00:16;13.10;99.90
580;DHT22;276;48.392;9.950;2022-10-31T05:02:45;13.10;99.90
580;DHT22;276;48.392;9.950;2022-10-31T05:05:16;13.10;99.90
580;DHT22;276;48.392;9.950;2022-10-31T05:07:42;13.10;99.90
580;DHT22;276;48.392;9.950;2022-10-31T05:10:13;13.10;99.90
580;DHT22;276;48.392;9.950;2022-10-31T05:12:49;13.10;99.90
580;DHT22;276;48.392;9.950;2022-10-31T05:15:22;13.10;99.90
580;DHT22;276;48.392;9.950;2022-10-31T05:17:49;13.10;99.90
580;DHT22;276;48.392;9.950;2022-10-31T05:20:18;13.10;99.90
580;DHT22;276;48.392;9.950;2022-10-31T05:22:45;13.10;99.90
580;DHT22;276;48.392;9.950;2022-10-31T05:25:11;13.10;99.90
580;DHT22;276;48.392;9.950;2022-10-31T05:27:43;13.00;99.90
580;DHT22;276;48.392;9.950;2022-10-31T05:30:14;13.00;99.90
580;DHT22;276;48.392;9.950;2022-10-31T05:32:43;13.00;99.90
580;DHT22;276;48.392;9.950;2022-10-31T05:35:12;13.00;99.90
580;DHT22;276;48.392;9.950;2022-10-31T05:37:41;13.00;99.90
580;DHT22;276;48.392;9.950;2022-10-31T05:40:09;13.00;99.90
580;DHT22;276;48.392;9.950;2022-10-31T05:42:35;13.00;99.90
580;DHT22;276;48.392;9.950;2022-10-31T05:45:01;13.00;99.90
580;DHT22;276;48.392;9.950;2022-10-31T05:47:29;13.00;99.90
580;DHT22;276;48.392;9.950;2022-10-31T05:49:55;13.00;99.90
580;DHT22;276;48.392;9.950;2022-10-31T05:52:20;12.90;99.90
580;DHT22;276;48.392;9.950;2022-10-31T05:54:46;12.90;99.90
580;DHT22;276;48.392;9.950;2022-10-31T05:57:11;12.90;99.90
580;DHT22;276;48.392;9.950;2022-10-31T05:59:37;12.90;99.90
580;DHT22;276;48.392;9.950;2022-10-31T06:02:03;12.90;99.90
580;DHT22;276;48.392;9.950;2022-10-31T06:04:28;12.90;99.90
580;DHT22;276;48.392;9.950;2022-10-31T06:06:54;12.90;99.90
580;DHT22;276;48.392;9.950;2022-10-31T06:09:19;12.90;99.90
580;DHT22;276;48.392;9.950;2022-10-31T06:11:50;12.90;99.90
580;DHT22;276;48.392;9.950;2022-10-31T06:14:15;12.90;99.90
580;DHT22;276;48.392;9.950;2022-10-31T06:16:41;12.90;99.90
580;DHT22;276;48.392;9.950;2022-10-31T06:19:08;12.90;99.90
580;DHT22;276;48.392;9.950;2022-10-31T06:21:34;12.90;99.90
580;DHT22;276;48.392;9.950;2022-10-31T06:24:00;12.90;99.90
580;DHT22;276;48.392;9.950;2022-10-31T06:26:25;13.00;99.90
580;DHT22;276;48.392;9.950;2022-10-31T06:28:51;13.00;99.90
580;DHT22;276;48.392;9.950;2022-10-31T06:31:19;13.00;99.90
580;DHT22;276;48.392;9.950;2022-10-31T06:33:47;13.00;99.90
580;DHT22;276;48.392;9.950;2022-10-31T06:36:12;13.00;99.90
580;DHT22;276;48.392;9.950;2022-10-31T06:38:38;13.10;99.90
580;DHT22;276;48.392;9.950;2022-10-31T06:41:05;13.10;99.90
580;DHT22;276;48.392;9.950;2022-10-31T06:43:33;13.10;99.90
580;DHT22;276;48.392;9.950;2022-10-31T06:46:02;13.10;99.90
580;DHT22;276;48.392;9.950;2022-10-31T06:48:28;13.10;99.90
580;DHT22;276;48.392;9.950;2022-10-31T06:50:57;13.10;99.90
580;DHT22;276;48.392;9.950;2022-10-31T06:53:28;13.10;99.90
580;DHT22;276;48.392;9.950;2022-10-31T06:55:55;13.10;99.90
580;DHT22;276;48.392;9.950;2022-10-31T06:58:21;13.20;99.90
580;DHT22;276;48.392;9.950;2022-10-31T07:00:47;13.20;99.90
580;DHT22;276;48.392;9.950;2022-10-31T07:03:14;13.20;99.90
580;DHT22;276;48.392;9.950;2022-10-31T07:05:41;13.30;99.90
580;DHT22;276;48.392;9.950;2022-10-31T07:08:11;13.40;99.90
580;DHT22;276;48.392;9.950;2022-10-31T07:10:38;13.40;99.90
580;DHT22;276;48.392;9.950;2022-10-31T07:13:06;13.50;99.90
580;DHT22;276;48.392;9.950;2022-10-31T07:15:35;13.60;99.90
580;DHT22;276;48.392;9.950;2022-10-31T07:18:03;13.60;99.90
580;DHT22;276;48.392;9.950;2022-10-31T07:20:29;13.70;99.90
580;DHT22;276;48.392;9.950;2022-10-31T07:22:57;13.70;99.90
580;DHT22;276;48.392;9.950;2022-10-31T07:25:26;13.80;99.90
580;DHT22;276;48.392;9.950;2022-10-31T07:27:52;13.80;99.90
580;DHT22;276;48.392;9.950;2022-10-31T07:30:18;13.90;99.90
580;DHT22;276;48.392;9.950;2022-10-31T07:32:50;13.90;99.90
580;DHT22;276;48.392;9.950;2022-10-31T07:35:21;14.00;99.90
580;DHT22;276;48.392;9.950;2022-10-31T07:37:49;14.10;99.90
580;DHT22;276;48.392;9.950;2022-10-31T07:40:16;14.20;99.90
580;DHT22;276;48.392;9.950;2022-10-31T07:42:46;14.30;99.90
580;DHT22;276;48.392;9.950;2022-10-31T07:45:14;14.30;99.90
580;DHT22;276;48.392;9.950;2022-10-31T07:50:17;14.40;99.90
580;DHT22;276;48.392;9.950;2022-10-31T07:52:43;14.40;99.90
580;DHT22;276;48.392;9.950;2022-10-31T07:55:12;14.40;99.90
580;DHT22;276;48.392;9.950;2022-10-31T07:57:38;14.50;99.90
580;DHT22;276;48.392;9.950;2022-10-31T08:00:08;14.50;99.90
580;DHT22;276;48.392;9.950;2022-10-31T08:02:37;14.60;99.90
580;DHT22;276;48.392;9.950;2022-10-31T08:05:02;14.60;99.90
580;DHT22;276;48.392;9.950;2022-10-31T08:07:28;14.70;99.90
580;DHT22;276;48.392;9.950;2022-10-31T08:09:56;14.80;99.90
580;DHT22;276;48.392;9.950;2022-10-31T08:12:22;14.80;99.90
580;DHT22;276;48.392;9.950;2022-10-31T08:14:50;14.80;99.90
580;DHT22;276;48.392;9.950;2022-10-31T08:17:15;14.90;99.90
580;DHT22;276;48.392;9.950;2022-10-31T08:19:43;14.90;99.90
580;DHT22;276;48.392;9.950;2022-10-31T08:22:09;15.00;99.90
580;DHT22;276;48.392;9.950;2022-10-31T08:24:37;15.00;99.90
580;DHT22;276;48.392;9.950;2022-10-31T08:27:02;15.10;99.90
580;DHT22;276;48.392;9.950;2022-10-31T08:29:30;15.20;99.90
580;DHT22;276;48.392;9.950;2022-10-31T08:31:58;15.30;99.90
580;DHT22;276;48.392;9.950;2022-10-31T08:34:29;15.30;99.90
580;DHT22;276;48.392;9.950;2022-10-31T08:36:57;15.40;99.90
580;DHT22;276;48.392;9.950;2022-10-31T08:39:22;15.50;99.90
580;DHT22;276;48.392;9.950;2022-10-31T08:41:48;15.60;99.90
580;DHT22;276;48.392;9.950;2022-10-31T08:44:13;15.70;99.90
580;DHT22;276;48.392;9.950;2022-10-31T08:46:41;15.80;99.90
580;DHT22;276;48.392;9.950;2022-10-31T08:49:06;15.90;99.90
580;DHT22;276;48.392;9.950;2022-10-31T08:51:34;16.00;99.90
580;DHT22;276;48.392;9.950;2022-10-31T08:54:02;16.10;99.90
580;DHT22;276;48.392;9.950;2022-10-31T08:56:28;16.20;99.90
580;DHT22;276;48.392;9.950;2022-10-31T08:58:53;16.40;99.90
580;DHT22;276;48.392;9.950;2022-10-31T09:01:19;16.50;99.90
580;DHT22;276;48.392;9.950;2022-10-31T09:03:45;16.60;99.90
580;DHT22;276;48.392;9.950;2022-10-31T09:06:15;16.60;99.90
580;DHT22;276;48.392;9.950;2022-10-31T09:08:41;16.70;99.90
580;DHT22;276;48.392;9.950;2022-10-31T09:11:06;16.80;99.90
580;DHT22;276;48.392;9.950;2022-10-31T09:13:32;16.90;99.90
580;DHT22;276;48.392;9.950;2022-10-31T09:16:00;17.10;99.90
580;DHT22;276;48.392;9.950;2022-10-31T09:18:26;17.20;99.90
580;DHT22;276;48.392;9.950;2022-10-31T09:20:58;17.20;99.90
580;DHT22;276;48.392;9.950;2022-10-31T09:23:27;17.30;99.90
580;DHT22;276;48.392;9.950;2022-10-31T09:25:53;17.40;99.90
580;DHT22;276;48.392;9.950;2022-10-31T09:28:22;17.50;99.90
580;DHT22;276;48.392;9.950;2022-10-31T09:30:50;17.60;99.90
580;DHT22;276;48.392;9.950;2022-10-31T09:33:17;17.70;99.90
580;DHT22;276;48.392;9.950;2022-10-31T09:35:43;17.90;99.90
580;DHT22;276;48.392;9.950;2022-10-31T09:38:17;18.00;99.90
580;DHT22;276;48.392;9.950;2022-10-31T09:51:34;18.70;99.90
580;DHT22;276;48.392;9.950;2022-10-31T09:56:52;18.80;99.90
580;DHT22;276;48.392;9.950;2022-10-31T09:59:43;18.80;99.90
580;DHT22;276;48.392;9.950;2022-10-31T10:05:03;19.00;99.90
580;DHT22;276;48.392;9.950;2022-10-31T10:10:11;19.20;99.90
580;DHT22;276;48.392;9.950;2022-10-31T10:13:23;19.30;99.90
580;DHT22;276;48.392;9.950;2022-10-31T10:21:31;19.70;99.90
580;DHT22;276;48.392;9.950;2022-10-31T10:27:20;19.90;99.90
580;DHT22;276;48.392;9.950;2022-10-31T10:32:52;20.00;99.90
580;DHT22;276;48.392;9.950;2022-10-31T10:35:52;20.10;99.90
580;DHT22;276;48.392;9.950;2022-10-31T10:38:28;20.10;99.90
580;DHT22;276;48.392;9.950;2022-10-31T10:40:58;20.00;99.90
580;DHT22;276;48.392;9.950;2022-10-31T10:43:37;20.00;99.90
580;DHT22;276;48.392;9.950;2022-10-31T10:51:34;20.20;99.90
580;DHT22;276;48.392;9.950;2022-10-31T10:56:58;21.40;99.90
580;DHT22;276;48.392;9.950;2022-10-31T10:59:26;22.20;99.90
580;DHT22;276;48.392;9.950;2022-10-31T11:01:52;23.30;99.10
580;DHT22;276;48.392;9.950;2022-10-31T11:07:06;24.70;96.50
580;DHT22;276;48.392;9.950;2022-10-31T11:09:33;25.30;95.20
580;DHT22;276;48.392;9.950;2022-10-31T11:12:26;25.70;94.00
580;DHT22;276;48.392;9.950;2022-10-31T11:15:02;25.80;93.10
580;DHT22;276;48.392;9.950;2022-10-31T11:17:32;26.00;92.60
580;DHT22;276;48.392;9.950;2022-10-31T11:20:29;26.30;91.70
580;DHT22;276;48.392;9.950;2022-10-31T11:23:16;26.70;90.90
580;DHT22;276;48.392;9.950;2022-10-31T11:26:00;27.50;89.80
580;DHT22;276;48.392;9.950;2022-10-31T11:28:28;28.20;87.00
580;DHT22;276;48.392;9.950;2022-10-31T11:31:16;28.50;84.50
580;DHT22;276;48.392;9.950;2022-10-31T11:36:20;28.80;82.20
580;DHT22;276;48.392;9.950;2022-10-31T11:38:47;29.10;80.70
580;DHT22;276;48.392;9.950;2022-10-31T11:41:19;29.10;78.60
580;DHT22;276;48.392;9.950;2022-10-31T11:44:03;29.20;77.60
580;DHT22;276;48.392;9.950;2022-10-31T11:46:38;29.30;76.90
580;DHT22;276;48.392;9.950;2022-10-31T11:49:06;29.20;76.10
580;DHT22;276;48.392;9.950;2022-10-31T11:51:37;29.00;76.20
580;DHT22;276;48.392;9.950;2022-10-31T11:54:05;28.40;77.10
580;DHT22;276;48.392;9.950;2022-10-31T11:56:41;27.90;78.40
580;DHT22;276;48.392;9.950;2022-10-31T11:59:28;27.40;79.80
580;DHT22;276;48.392;9.950;2022-10-31T12:02:00;26.90;81.50
580;DHT22;276;48.392;9.950;2022-10-31T12:04:41;26.40;83.20
580;DHT22;276;48.392;9.950;2022-10-31T12:07:12;25.90;84.50
580;DHT22;276;48.392;9.950;2022-10-31T12:09:38;25.40;85.90
580;DHT22;276;48.392;9.950;2022-10-31T12:17:51;24.10;90.10
580;DHT22;276;48.392;9.950;2022-10-31T12:23:10;23.40;91.50
580;DHT22;276;48.392;9.950;2022-10-31T12:36:41;22.10;94.00
580;DHT22;276;48.392;9.950;2022-10-31T12:53:00;20.80;98.00
580;DHT22;276;48.392;9.950;2022-10-31T12:55:53;20.60;98.50
580;DHT22;276;48.392;9.950;2022-10-31T12:58:34;20.50;99.50
580;DHT22;276;48.392;9.950;2022-10-31T13:01:15;20.30;99.90
580;DHT22;276;48.392;9.950;2022-10-31T13:03:55;20.20;99.90
580;DHT22;276;48.392;9.950;2022-10-31T13:06:29;20.20;99.90
580;DHT22;276;48.392;9.950;2022-10-31T13:09:02;20.10;99.90
580;DHT22;276;48.392;9.950;2022-10-31T13:11:39;20.00;99.90
580;DHT22;276;48.392;9.950;2022-10-31T13:14:23;19.90;99.90
580;DHT22;276;48.392;9.950;2022-10-31T13:16:50;19.90;99.90
580;DHT22;276;48.392;9.950;2022-10-31T13:19:24;19.80;99.90
580;DHT22;276;48.392;9.950;2022-10-31T13:27:57;19.50;99.90
580;DHT22;276;48.392;9.950;2022-10-31T13:30:26;19.50;99.90
580;DHT22;276;48.392;9.950;2022-10-31T13:33:07;19.50;99.90
580;DHT22;276;48.392;9.950;2022-10-31T13:38:23;19.50;99.90
580;DHT22;276;48.392;9.950;2022-10-31T13:40:58;19.50;99.90
580;DHT22;276;48.392;9.950;2022-10-31T13:43:40;19.50;99.90
580;DHT22;276;48.392;9.950;2022-10-31T13:46:34;19.50;99.90
580;DHT22;276;48.392;9.950;2022-10-31T13:49:00;19.60;99.90
580;DHT22;276;48.392;9.950;2022-10-31T13:51:30;19.50;99.90
580;DHT22;276;48.392;9.950;2022-10-31T13:54:00;19.50;99.90
580;DHT22;276;48.392;9.950;2022-10-31T13:56:31;19.50;99.90
580;DHT22;276;48.392;9.950;2022-10-31T14:01:23;19.50;99.90
580;DHT22;276;48.392;9.950;2022-10-31T14:04:02;19.50;99.90
580;DHT22;276;48.392;9.950;2022-10-31T14:09:50;19.50;99.90
580;DHT22;276;48.392;9.950;2022-10-31T14:15:22;19.40;99.90
580;DHT22;276;48.392;9.950;2022-10-31T14:17:55;19.40;99.90
580;DHT22;276;48.392;9.950;2022-10-31T14:22:57;19.50;99.90
580;DHT22;276;48.392;9.950;2022-10-31T14:27:53;19.60;99.90
580;DHT22;276;48.392;9.950;2022-10-31T14:30:24;19.60;99.90
580;DHT22;276;48.392;9.950;2022-10-31T14:32:53;19.60;99.90
580;DHT22;276;48.392;9.950;2022-10-31T14:35:24;19.70;99.90
580;DHT22;276;48.392;9.950;2022-10-31T14:46:18;19.70;99.90
580;DHT22;276;48.392;9.950;2022-10-31T14:51:47;19.70;99.90
580;DHT22;276;48.392;9.950;2022-10-31T14:54:27;19.70;99.90
580;DHT22;276;48.392;9.950;2022-10-31T14:56:59;19.70;99.90
580;DHT22;276;48.392;9.950;2022-10-31T14:59:28;19.70;99.90
580;DHT22;276;48.392;9.950;2022-10-31T15:02:11;19.60;99.90
580;DHT22;276;48.392;9.950;2022-10-31T15:04:38;19.60;99.90
580;DHT22;276;48.392;9.950;2022-10-31T15:09:36;19.50;99.90
580;DHT22;276;48.392;9.950;2022-10-31T15:12:29;19.50;99.90
580;DHT22;276;48.392;9.950;2022-10-31T15:14:58;19.40;99.90
580;DHT22;276;48.392;9.950;2022-10-31T15:17:35;19.30;99.90
580;DHT22;276;48.392;9.950;2022-10-31T15:20:01;19.30;99.90
580;DHT22;276;48.392;9.950;2022-10-31T15:22:30;19.20;99.90
580;DHT22;276;48.392;9.950;2022-10-31T15:24:57;19.20;99.90
580;DHT22;276;48.392;9.950;2022-10-31T15:27:23;19.20;99.90
580;DHT22;276;48.392;9.950;2022-10-31T15:29:51;19.10;99.90
580;DHT22;276;48.392;9.950;2022-10-31T15:32:25;19.10;99.90
580;DHT22;276;48.392;9.950;2022-10-31T15:34:52;19.00;99.90
580;DHT22;276;48.392;9.950;2022-10-31T15:37:21;19.00;99.90
580;DHT22;276;48.392;9.950;2022-10-31T15:39:48;18.90;99.90
580;DHT22;276;48.392;9.950;2022-10-31T15:44:49;18.80;99.90
580;DHT22;276;48.392;9.950;2022-10-31T15:47:18;18.70;99.90
580;DHT22;276;48.392;9.950;2022-10-31T15:49:50;18.70;99.90
580;DHT22;276;48.392;9.950;2022-10-31T15:52:34;18.60;99.90
580;DHT22;276;48.392;9.950;2022-10-31T15:55:04;18.60;99.90
580;DHT22;276;48.392;9.950;2022-10-31T15:57:33;18.50;99.90
580;DHT22;276;48.392;9.950;2022-10-31T16:00:04;18.50;99.90
580;DHT22;276;48.392;9.950;2022-10-31T16:02:30;18.40;99.90
580;DHT22;276;48.392;9.950;2022-10-31T16:04:56;18.40;99.90
580;DHT22;276;48.392;9.950;2022-10-31T16:07:25;18.30;99.90
580;DHT22;276;48.392;9.950;2022-10-31T16:09:56;18.20;99.90
580;DHT22;276;48.392;9.950;2022-10-31T16:12:35;18.10;99.90
580;DHT22;276;48.392;9.950;2022-10-31T16:15:03;18.00;99.90
580;DHT22;276;48.392;9.950;2022-10-31T16:17:32;18.00;99.90
580;DHT22;276;48.392;9.950;2022-10-31T16:20:04;17.90;99.90
580;DHT22;276;48.392;9.950;2022-10-31T16:22:35;17.90;99.90
580;DHT22;276;48.392;9.950;2022-10-31T16:25:11;17.80;99.90
580;DHT22;276;48.392;9.950;2022-10-31T16:27:38;17.80;99.90
580;DHT22;276;48.392;9.950;2022-10-31T16:30:27;17.70;99.90
580;DHT22;276;48.392;9.950;2022-10-31T16:32:59;17.70;99.90
580;DHT22;276;48.392;9.950;2022-10-31T16:35:35;17.60;99.90
580;DHT22;276;48.392;9.950;2022-10-31T16:38:01;17.50;99.90
580;DHT22;276;48.392;9.950;2022-10-31T16:40:30;17.50;99.90
580;DHT22;276;48.392;9.950;2022-10-31T16:43:00;17.40;99.90
580;DHT22;276;48.392;9.950;2022-10-31T16:45:28;17.40;99.90
580;DHT22;276;48.392;9.950;2022-10-31T16:48:13;17.30;99.90
580;DHT22;276;48.392;9.950;2022-10-31T16:50:41;17.30;99.90
580;DHT22;276;48.392;9.950;2022-10-31T16:53:06;17.20;99.90
580;DHT22;276;48.392;9.950;2022-10-31T16:55:59;17.10;99.90
580;DHT22;276;48.392;9.950;2022-10-31T16:58:33;17.10;99.90
580;DHT22;276;48.392;9.950;2022-10-31T17:01:04;17.00;99.90
580;DHT22;276;48.392;9.950;2022-10-31T17:03:30;17.00;99.90
580;DHT22;276;48.392;9.950;2022-10-31T17:05:56;16.90;99.90
580;DHT22;276;48.392;9.950;2022-10-31T17:08:22;16.80;99.90
580;DHT22;276;48.392;9.950;2022-10-31T17:10:51;16.80;99.90
580;DHT22;276;48.392;9.950;2022-10-31T17:13:20;16.80;99.90
580;DHT22;276;48.392;9.950;2022-10-31T17:15:50;16.70;99.90
580;DHT22;276;48.392;9.950;2022-10-31T17:18:16;16.70;99.90
580;DHT22;276;48.392;9.950;2022-10-31T17:20:43;16.70;99.90
580;DHT22;276;48.392;9.950;2022-10-31T17:23:12;16.60;99.90
580;DHT22;276;48.392;9.950;2022-10-31T17:25:41;16.50;99.90
580;DHT22;276;48.392;9.950;2022-10-31T17:28:13;16.50;99.90
580;DHT22;276;48.392;9.950;2022-10-31T17:30:40;16.50;99.90
580;DHT22;276;48.392;9.950;2022-10-31T17:33:07;16.40;99.90
580;DHT22;276;48.392;9.950;2022-10-31T17:35:36;16.40;99.90
580;DHT22;276;48.392;9.950;2022-10-31T17:38:02;16.40;99.90
580;DHT22;276;48.392;9.950;2022-10-31T17:40:27;16.40;99.90
580;DHT22;276;48.392;9.950;2022-10-31T17:42:56;16.30;99.90
580;DHT22;276;48.392;9.950;2022-10-31T17:45:24;16.30;99.90
580;DHT22;276;48.392;9.950;2022-10-31T17:47:52;16.20;99.90
580;DHT22;276;48.392;9.950;2022-10-31T17:50:22;16.20;99.90
580;DHT22;276;48.392;9.950;2022-10-31T17:52:48;16.10;99.90
580;DHT22;276;48.392;9.950;2022-10-31T17:55:15;16.10;99.90
580;DHT22;276;48.392;9.950;2022-10-31T17:57:40;16.10;99.90
580;DHT22;276;48.392;9.950;2022-10-31T18:00:12;16.10;99.90
580;DHT22;276;48.392;9.950;2022-10-31T18:02:40;16.00;99.90
580;DHT22;276;48.392;9.950;2022-10-31T18:05:09;16.00;99.90
580;DHT22;276;48.392;9.950;2022-10-31T18:07:35;15.90;99.90
580;DHT22;276;48.392;9.950;2022-10-31T18:10:03;15.90;99.90
580;DHT22;276;48.392;9.950;2022-10-31T18:12:29;15.90;99.90
580;DHT22;276;48.392;9.950;2022-10-31T18:15:01;15.90;99.90
580;DHT22;276;48.392;9.950;2022-10-31T18:17:26;15.80;99.90
580;DHT22;276;48.392;9.950;2022-10-31T18:19:52;15.80;99.90
580;DHT22;276;48.392;9.950;2022-10-31T18:22:18;15.80;99.90
580;DHT22;276;48.392;9.950;2022-10-31T18:24:43;15.70;99.90
580;DHT22;276;48.392;9.950;2022-10-31T18:27:09;15.80;99.90
580;DHT22;276;48.392;9.950;2022-10-31T18:29:34;15.70;99.90
580;DHT22;276;48.392;9.950;2022-10-31T18:32:00;15.70;99.90
580;DHT22;276;48.392;9.950;2022-10-31T18:34:31;15.60;99.90
580;DHT22;276;48.392;9.950;2022-10-31T18:37:01;15.60;99.90
580;DHT22;276;48.392;9.950;2022-10-31T18:39:27;15.60;99.90
580;DHT22;276;48.392;9.950;2022-10-31T18:41:53;15.60;99.90
580;DHT22;276;48.392;9.950;2022-10-31T18:44:19;15.60;99.90
580;DHT22;276;48.392;9.950;2022-10-31T18:46:45;15.50;99.90
580;DHT22;276;48.392;9.950;2022-10-31T18:49:13;15.60;99.90
580;DHT22;276;48.392;9.950;2022-10-31T18:51:49;15.50;99.90
580;DHT22;276;48.392;9.950;2022-10-31T18:54:19;15.50;99.90
580;DHT22;276;48.392;9.950;2022-10-31T18:56:45;15.50;99.90
580;DHT22;276;48.392;9.950;2022-10-31T18:59:13;15.50;99.90
580;DHT22;276;48.392;9.950;2022-10-31T19:01:39;15.50;99.90
580;DHT22;276;48.392;9.950;2022-10-31T19:04:05;15.50;99.90
580;DHT22;276;48.392;9.950;2022-10-31T19:06:33;15.50;99.90
580;DHT22;276;48.392;9.950;2022-10-31T19:09:01;15.50;99.90
580;DHT22;276;48.392;9.950;2022-10-31T19:11:31;15.50;99.90
580;DHT22;276;48.392;9.950;2022-10-31T19:14:01;15.50;99.90
580;DHT22;276;48.392;9.950;2022-10-31T19:16:29;15.40;99.90
580;DHT22;276;48.392;9.950;2022-10-31T19:18:57;15.40;99.90
580;DHT22;276;48.392;9.950;2022-10-31T19:21:24;15.40;99.90
580;DHT22;276;48.392;9.950;2022-10-31T19:23:55;15.40;99.90
580;DHT22;276;48.392;9.950;2022-10-31T19:26:24;15.40;99.90